Dripping Springs' Hourly Summary for Saturday, July 7, 2018
Hour Temp
(f)
RH
(%)
Solar Rad.
(MJ/m2)
Rainfall
(in)
Wind
(mph)
7/7/2018 12:00 AM 80 70 0 0 2.82
7/7/2018 1:00 AM 78 75 0 0 0.92
7/7/2018 2:00 AM 77 77 0 0 1.48
7/7/2018 3:00 AM 76 80 0 0 1.78
7/7/2018 4:00 AM 75 84 0 0 1.78
7/7/2018 5:00 AM 73 90 0 0 0.08
7/7/2018 6:00 AM 71 92 0.01 0 0.45
7/7/2018 7:00 AM 74 92 0.37 0 1.44
7/7/2018 8:00 AM 77 83 0.71 0 2.29
7/7/2018 9:00 AM 78 78 1.11 0 3.68
7/7/2018 10:00 AM 80 73 1.11 0.14 5.84
7/7/2018 11:00 AM 80 87 1.03 0.04 5.84
7/7/2018 12:00 PM 76 87 1.29 0 2.74
7/7/2018 1:00 PM 82 75 3 0 3.46
7/7/2018 2:00 PM 86 61 3.48 0 6.36
7/7/2018 3:00 PM 86 54 3.48 0 9.45
7/7/2018 4:00 PM 83 62 1.09 0 9.45
7/7/2018 5:00 PM 81 63 1.09 0 8.12
7/7/2018 6:00 PM 81 64 0.93 0 4.92
7/7/2018 7:00 PM 81 67 0.42 0 3.82
7/7/2018 8:00 PM 81 67 0.18 0 3.82
7/7/2018 9:00 PM 80 70 0.04 0 3.77
7/7/2018 10:00 PM 77 74 0 0 2.3
7/7/2018 11:00 PM 76 80 0 0 2.3
Data Summary 78 75 19.34 0.18 3.70